createdAt,value
2023-01-18T00:02:03.691Z,30.30
2023-01-18T00:04:30.305Z,31.00
2023-01-18T00:06:57.316Z,29.87
2023-01-18T00:09:23.821Z,30.97
2023-01-18T00:11:50.330Z,30.10
2023-01-18T00:14:17.069Z,30.70
2023-01-18T00:16:43.582Z,30.83
2023-01-18T00:19:13.098Z,30.53
2023-01-18T00:21:40.570Z,32.13
2023-01-18T00:24:10.991Z,31.23
2023-01-18T00:26:37.987Z,30.57
2023-01-18T00:29:04.924Z,32.30
2023-01-18T00:31:31.739Z,32.40
2023-01-18T00:33:58.576Z,32.90
2023-01-18T00:36:25.078Z,33.33
2023-01-18T00:38:52.528Z,31.40
2023-01-18T00:41:20.855Z,33.40
2023-01-18T00:43:47.311Z,32.27
2023-01-18T00:46:20.044Z,30.20
2023-01-18T00:48:47.112Z,30.27
2023-01-18T00:51:16.271Z,29.97
2023-01-18T00:53:46.137Z,31.80
2023-01-18T00:56:15.566Z,30.00
2023-01-18T00:58:42.475Z,31.60
2023-01-18T01:01:10.044Z,32.40
2023-01-18T01:03:56.148Z,33.63
2023-01-18T01:06:44.539Z,32.93
2023-01-18T01:09:22.018Z,33.17
2023-01-18T01:12:07.879Z,31.83
2023-01-18T01:14:55.909Z,32.03
2023-01-18T01:17:41.392Z,32.53
2023-01-18T01:20:27.441Z,32.53
2023-01-18T01:23:12.306Z,30.67
2023-01-18T01:25:58.142Z,31.63
2023-01-18T01:28:24.933Z,29.13
2023-01-18T01:30:51.583Z,29.90
2023-01-18T01:33:18.677Z,29.33
2023-01-18T01:35:45.515Z,29.03
2023-01-18T01:38:12.037Z,28.27
2023-01-18T01:40:38.537Z,26.57
2023-01-18T01:43:09.795Z,26.67
2023-01-18T01:45:36.461Z,27.43
2023-01-18T01:48:03.325Z,27.53
2023-01-18T01:50:35.890Z,27.90
2023-01-18T01:53:02.906Z,27.70
2023-01-18T01:55:35.150Z,28.17
2023-01-18T01:58:03.790Z,29.73
2023-01-18T02:00:30.885Z,30.03
2023-01-18T02:03:02.182Z,26.77
2023-01-18T02:05:30.017Z,28.63
2023-01-18T02:07:59.883Z,28.40
2023-01-18T02:10:26.779Z,29.50
2023-01-18T02:12:54.879Z,28.67
2023-01-18T02:15:22.979Z,28.33
2023-01-18T02:18:06.188Z,29.53
2023-01-18T02:21:03.232Z,28.47
2023-01-18T02:23:35.233Z,29.30
2023-01-18T02:26:25.079Z,30.07
2023-01-18T02:29:01.464Z,28.70
2023-01-18T02:31:34.512Z,29.37
2023-01-18T02:34:16.535Z,29.13
2023-01-18T02:37:01.267Z,29.83
2023-01-18T02:39:38.423Z,29.27
2023-01-18T02:42:40.302Z,29.53
2023-01-18T02:45:36.044Z,28.03
2023-01-18T02:48:03.304Z,29.00
2023-01-18T02:50:29.854Z,28.30
2023-01-18T02:52:56.723Z,27.37
2023-01-18T02:55:47.917Z,28.30
2023-01-18T02:58:34.253Z,26.20
2023-01-18T03:01:15.431Z,27.40
2023-01-18T03:03:44.376Z,26.33
2023-01-18T03:06:10.879Z,26.50
2023-01-18T03:08:46.553Z,25.43
2023-01-18T03:11:19.183Z,25.30
2023-01-18T03:13:57.880Z,25.03
2023-01-18T03:16:26.205Z,24.07
2023-01-18T03:19:25.677Z,24.77
2023-01-18T03:21:53.229Z,23.30
2023-01-18T03:24:22.887Z,23.83
2023-01-18T03:26:53.190Z,23.97
2023-01-18T03:29:39.639Z,24.33
2023-01-18T03:32:30.364Z,23.13
2023-01-18T03:35:10.877Z,23.73
2023-01-18T03:37:41.016Z,23.67
2023-01-18T03:40:13.570Z,23.40
2023-01-18T03:43:05.579Z,24.83
2023-01-18T03:45:38.909Z,23.07
2023-01-18T03:48:08.149Z,24.27
2023-01-18T03:50:49.942Z,22.83
2023-01-18T03:53:42.157Z,22.83
2023-01-18T03:56:37.805Z,22.13
2023-01-18T03:59:05.508Z,21.63
2023-01-18T04:01:32.158Z,23.87
2023-01-18T04:03:58.706Z,22.47
2023-01-18T04:06:25.817Z,22.87
2023-01-18T04:08:53.157Z,21.27
2023-01-18T04:11:20.234Z,22.70
2023-01-18T04:13:46.746Z,22.30
2023-01-18T04:16:13.453Z,23.33
2023-01-18T04:18:40.043Z,23.50
2023-01-18T04:21:06.497Z,22.47
2023-01-18T04:23:32.968Z,22.23
2023-01-18T04:25:59.510Z,23.23
2023-01-18T04:28:26.101Z,23.70
2023-01-18T04:30:54.080Z,23.73
2023-01-18T04:33:21.669Z,23.67
2023-01-18T04:35:48.584Z,24.30
2023-01-18T04:38:15.833Z,25.30
2023-01-18T04:40:42.751Z,24.90
2023-01-18T04:43:09.371Z,24.73
2023-01-18T04:45:35.876Z,25.57
2023-01-18T04:48:02.311Z,25.87
2023-01-18T04:50:28.875Z,25.73
2023-01-18T04:52:55.726Z,25.53
2023-01-18T04:55:22.827Z,26.10
2023-01-18T04:57:56.778Z,26.20
2023-01-18T05:00:24.161Z,26.30
2023-01-18T05:02:50.995Z,25.97
2023-01-18T05:05:17.814Z,26.00
2023-01-18T05:07:44.312Z,25.20
2023-01-18T05:10:11.170Z,25.73
2023-01-18T05:12:37.930Z,26.33
2023-01-18T05:15:05.859Z,26.57
2023-01-18T05:17:34.612Z,24.93
2023-01-18T05:20:02.070Z,26.10
2023-01-18T05:22:29.154Z,27.43
2023-01-18T05:24:55.777Z,26.63
2023-01-18T05:27:22.394Z,26.87
2023-01-18T05:29:48.890Z,27.67
2023-01-18T05:32:15.435Z,27.23
2023-01-18T05:34:42.332Z,27.40
2023-01-18T05:37:08.772Z,27.30
2023-01-18T05:39:35.216Z,26.80
2023-01-18T05:42:01.729Z,26.80
2023-01-18T05:44:28.255Z,28.00
2023-01-18T05:46:54.733Z,27.70
2023-01-18T05:49:21.207Z,25.90
2023-01-18T05:51:47.734Z,25.40
2023-01-18T05:54:14.282Z,25.73
2023-01-18T05:56:42.248Z,26.27
2023-01-18T05:59:09.063Z,26.60
2023-01-18T06:01:35.602Z,24.03
2023-01-18T06:04:02.149Z,22.57
2023-01-18T06:06:28.794Z,23.03
2023-01-18T06:08:55.354Z,20.73
2023-01-18T06:11:22.015Z,21.67
2023-01-18T06:13:48.624Z,22.13
2023-01-18T06:16:15.262Z,22.63
2023-01-18T06:18:42.024Z,22.70
2023-01-18T06:21:10.769Z,21.77
2023-01-18T06:23:37.844Z,22.77
2023-01-18T06:26:04.570Z,21.63
2023-01-18T06:28:31.141Z,21.47
2023-01-18T06:30:58.091Z,22.23
2023-01-18T06:33:25.207Z,22.30
2023-01-18T06:35:52.242Z,21.50
2023-01-18T06:38:19.984Z,21.43
2023-01-18T06:40:46.500Z,20.83
2023-01-18T06:43:14.296Z,20.30
2023-01-18T06:45:41.372Z,19.53
2023-01-18T06:48:08.256Z,18.27
2023-01-18T06:50:34.700Z,17.60
2023-01-18T06:53:01.499Z,16.77
2023-01-18T06:55:28.155Z,17.53
2023-01-18T06:57:56.217Z,16.80
2023-01-18T07:00:23.588Z,17.63
2023-01-18T07:02:52.811Z,16.43
2023-01-18T07:05:22.931Z,15.63
2023-01-18T07:07:49.468Z,16.63
2023-01-18T07:10:16.910Z,16.97
2023-01-18T07:12:47.419Z,15.47
2023-01-18T07:15:21.607Z,16.23
2023-01-18T07:17:50.322Z,15.77
2023-01-18T07:20:17.106Z,15.43
2023-01-18T07:22:43.610Z,15.20
2023-01-18T07:25:13.262Z,14.90
2023-01-18T07:27:43.545Z,13.93
2023-01-18T07:30:13.520Z,13.53
2023-01-18T07:32:40.614Z,15.93
2023-01-18T07:35:07.402Z,14.10
2023-01-18T07:37:34.151Z,14.43
2023-01-18T07:40:00.709Z,12.47
2023-01-18T07:42:27.224Z,14.97
2023-01-18T07:44:53.960Z,14.30
2023-01-18T07:47:21.081Z,13.93
2023-01-18T07:49:47.547Z,13.97
2023-01-18T07:52:14.033Z,13.73
2023-01-18T07:54:40.543Z,13.77
2023-01-18T07:57:07.032Z,13.63
2023-01-18T07:59:33.813Z,12.77
2023-01-18T08:02:00.444Z,13.27
2023-01-18T08:04:27.018Z,12.37
2023-01-18T08:06:53.693Z,12.73
2023-01-18T08:09:22.867Z,12.53
2023-01-18T08:11:49.385Z,13.27
2023-01-18T08:14:16.408Z,13.93
2023-01-18T08:16:43.291Z,14.93
2023-01-18T08:19:09.940Z,13.13
2023-01-18T08:21:36.567Z,12.90
2023-01-18T08:24:03.625Z,12.20
2023-01-18T08:26:30.285Z,12.30
2023-01-18T08:28:57.557Z,11.90
2023-01-18T08:31:24.176Z,12.50
2023-01-18T08:33:51.017Z,13.63
2023-01-18T08:36:22.789Z,13.37
2023-01-18T08:38:51.071Z,12.87
2023-01-18T08:41:19.122Z,11.47
2023-01-18T08:43:50.563Z,12.17
2023-01-18T08:46:17.493Z,11.13
2023-01-18T08:48:44.191Z,11.83
2023-01-18T08:51:10.895Z,10.17
2023-01-18T08:53:37.518Z,11.60
2023-01-18T08:56:06.326Z,12.10
2023-01-18T08:58:33.182Z,11.80
2023-01-18T09:00:59.803Z,12.57
2023-01-18T09:03:26.458Z,12.83
2023-01-18T09:05:52.964Z,12.10
2023-01-18T09:08:22.786Z,12.73
2023-01-18T09:10:49.586Z,13.80
2023-01-18T09:13:16.056Z,14.40
2023-01-18T09:15:42.873Z,13.23
2023-01-18T09:18:09.693Z,13.40
2023-01-18T09:20:36.408Z,12.73
2023-01-18T09:23:10.173Z,13.33
2023-01-18T09:25:37.196Z,13.27
2023-01-18T09:28:04.825Z,13.37
2023-01-18T09:30:31.448Z,14.37
2023-01-18T09:32:58.823Z,13.40
2023-01-18T09:35:25.587Z,13.93
2023-01-18T09:37:52.332Z,13.17
2023-01-18T09:40:20.757Z,12.93
2023-01-18T09:42:49.503Z,11.47
2023-01-18T09:45:31.952Z,12.10
2023-01-18T09:48:05.242Z,12.17
2023-01-18T09:50:42.810Z,12.47
2023-01-18T09:53:57.653Z,10.50
2023-01-18T09:56:27.752Z,11.00
2023-01-18T09:59:15.584Z,10.63
2023-01-18T10:01:42.281Z,9.53
2023-01-18T10:04:24.549Z,10.57
2023-01-18T10:07:02.947Z,9.40
2023-01-18T10:09:38.883Z,10.17
2023-01-18T10:12:31.780Z,10.03
2023-01-18T10:15:04.677Z,9.83
2023-01-18T10:17:35.832Z,9.67
2023-01-18T10:20:14.665Z,10.13
2023-01-18T10:23:09.408Z,9.90
2023-01-18T10:25:52.484Z,9.57
2023-01-18T10:28:27.764Z,9.83
2023-01-18T10:31:03.745Z,9.97
2023-01-18T10:33:36.481Z,9.93
2023-01-18T10:36:11.827Z,10.23
2023-01-18T10:38:40.858Z,10.23
2023-01-18T10:41:18.999Z,10.90
2023-01-18T10:43:45.841Z,9.77
2023-01-18T10:46:17.261Z,10.30
2023-01-18T10:48:49.490Z,9.67
2023-01-18T10:51:37.596Z,8.93
2023-01-18T10:54:23.382Z,9.93
2023-01-18T10:57:01.912Z,10.63
2023-01-18T10:59:35.832Z,11.93
2023-01-18T11:02:03.071Z,11.77
2023-01-18T11:04:31.647Z,12.00
2023-01-18T11:07:02.294Z,11.70
2023-01-18T11:09:40.923Z,10.77
2023-01-18T11:12:43.507Z,11.30
2023-01-18T11:15:15.730Z,9.87
2023-01-18T11:18:00.395Z,10.77
2023-01-18T11:20:46.289Z,10.67
2023-01-18T11:23:25.578Z,10.33
2023-01-18T11:26:05.884Z,10.50
2023-01-18T11:28:59.096Z,11.73
2023-01-18T11:31:29.285Z,11.93
2023-01-18T11:33:58.281Z,10.77
2023-01-18T11:36:35.588Z,10.63
2023-01-18T11:39:29.984Z,10.67
2023-01-18T11:42:20.245Z,10.20
2023-01-18T11:45:09.978Z,10.43
2023-01-18T11:47:45.500Z,10.77
2023-01-18T11:50:28.382Z,10.33
2023-01-18T11:53:15.110Z,10.87
2023-01-18T11:55:47.620Z,11.13
2023-01-18T11:58:28.623Z,10.97
2023-01-18T12:01:34.117Z,9.43
2023-01-18T12:04:14.388Z,10.03
2023-01-18T12:07:05.340Z,9.10
2023-01-18T12:09:34.777Z,8.70
2023-01-18T12:12:18.594Z,9.37
2023-01-18T12:15:05.388Z,9.97
2023-01-18T12:17:45.813Z,8.43
2023-01-18T12:20:38.529Z,8.33
2023-01-18T12:23:22.578Z,10.70
2023-01-18T12:26:11.666Z,9.67
2023-01-18T12:28:57.547Z,10.70
2023-01-18T12:31:56.917Z,8.13
2023-01-18T12:34:30.495Z,7.80
2023-01-18T12:37:22.750Z,7.73
2023-01-18T12:40:01.365Z,8.63
2023-01-18T12:42:37.520Z,8.77
2023-01-18T12:45:17.701Z,8.63
2023-01-18T12:48:05.257Z,7.67
2023-01-18T12:50:34.396Z,7.60
2023-01-18T12:53:05.417Z,7.53
2023-01-18T12:55:33.496Z,6.97
2023-01-18T12:58:00.962Z,7.27
2023-01-18T13:00:36.852Z,8.07
2023-01-18T13:03:15.055Z,7.93
2023-01-18T13:05:58.093Z,7.73
2023-01-18T13:08:30.617Z,8.67
2023-01-18T13:11:06.978Z,8.73
2023-01-18T13:13:40.982Z,8.70
2023-01-18T13:16:29.332Z,8.23
2023-01-18T13:19:00.523Z,8.80
2023-01-18T13:22:01.074Z,8.40
2023-01-18T13:24:39.839Z,8.80
2023-01-18T13:27:11.946Z,9.23
2023-01-18T13:29:39.364Z,10.00
2023-01-18T13:32:24.551Z,10.17
2023-01-18T13:35:17.962Z,10.10
2023-01-18T13:37:56.345Z,9.50
2023-01-18T13:40:24.928Z,9.17
2023-01-18T13:42:51.666Z,8.70
2023-01-18T13:45:21.886Z,9.03
2023-01-18T13:48:00.942Z,9.47
2023-01-18T13:50:38.312Z,12.73
2023-01-18T13:53:13.974Z,11.73
2023-01-18T13:55:42.003Z,13.20
2023-01-18T13:58:38.655Z,13.77
2023-01-18T14:01:07.151Z,15.20
2023-01-18T14:03:36.603Z,13.60
2023-01-18T14:06:10.177Z,14.13
2023-01-18T14:08:39.880Z,13.97
2023-01-18T14:11:09.718Z,13.37
2023-01-18T14:13:45.391Z,14.27
2023-01-18T14:16:26.123Z,11.50
2023-01-18T14:19:03.120Z,10.60
2023-01-18T14:22:07.706Z,11.30
2023-01-18T14:24:50.054Z,11.10
2023-01-18T14:27:20.584Z,11.20
2023-01-18T14:29:48.465Z,9.37
2023-01-18T14:32:23.235Z,8.77
2023-01-18T14:35:25.990Z,10.40
2023-01-18T14:37:54.088Z,11.23
2023-01-18T14:40:28.258Z,10.30
2023-01-18T14:43:10.279Z,11.37
2023-01-18T14:45:39.082Z,10.93
2023-01-18T14:48:10.887Z,9.80
2023-01-18T14:50:42.129Z,10.40
2023-01-18T14:53:20.151Z,11.13
2023-01-18T14:56:06.591Z,10.97
2023-01-18T14:58:36.632Z,9.10
2023-01-18T15:01:04.033Z,8.67
2023-01-18T15:03:32.048Z,8.70
2023-01-18T15:06:08.453Z,9.17
2023-01-18T15:08:35.712Z,9.57
2023-01-18T15:11:05.041Z,9.80
2023-01-18T15:13:33.007Z,10.03
2023-01-18T15:16:02.829Z,11.23
2023-01-18T15:18:29.875Z,12.27
2023-01-18T15:20:59.298Z,12.80
2023-01-18T15:23:27.223Z,13.10
2023-01-18T15:25:54.479Z,12.23
2023-01-18T15:28:23.990Z,11.80
2023-01-18T15:30:53.189Z,12.03
2023-01-18T15:33:22.377Z,12.50
2023-01-18T15:35:53.128Z,11.40
2023-01-18T15:38:22.766Z,11.43
2023-01-18T15:40:57.191Z,12.67
2023-01-18T15:43:28.303Z,15.07
2023-01-18T15:45:56.047Z,14.57
2023-01-18T15:48:23.496Z,15.50
2023-01-18T15:50:52.641Z,14.37
2023-01-18T15:53:29.189Z,15.07
2023-01-18T15:56:03.856Z,14.80
2023-01-18T15:58:34.834Z,14.10
2023-01-18T16:01:10.769Z,13.67
2023-01-18T16:03:41.479Z,15.87
2023-01-18T16:06:11.447Z,16.07
2023-01-18T16:09:10.625Z,15.00
2023-01-18T16:11:41.569Z,15.57
2023-01-18T16:14:30.906Z,17.20
2023-01-18T16:17:15.475Z,17.27
2023-01-18T16:19:55.571Z,17.80
2023-01-18T16:22:28.835Z,17.80
2023-01-18T16:25:08.950Z,18.67
2023-01-18T16:27:55.926Z,18.37
2023-01-18T16:30:26.009Z,18.47
2023-01-18T16:32:52.835Z,18.33
2023-01-18T16:35:21.402Z,20.07
2023-01-18T16:37:48.291Z,20.83
2023-01-18T16:40:17.087Z,22.33
2023-01-18T16:43:20.357Z,22.87
2023-01-18T16:45:49.709Z,22.60
2023-01-18T16:48:20.245Z,23.30
2023-01-18T16:50:47.466Z,23.50
2023-01-18T16:53:14.194Z,24.43
2023-01-18T16:55:43.947Z,24.87
2023-01-18T16:58:14.097Z,25.13
2023-01-18T17:01:00.146Z,25.60
2023-01-18T17:03:27.781Z,25.50
2023-01-18T17:05:55.282Z,24.67
2023-01-18T17:08:21.784Z,26.10
2023-01-18T17:10:50.162Z,25.57
2023-01-18T17:13:17.177Z,26.67
2023-01-18T17:15:45.457Z,28.87
2023-01-18T17:18:16.951Z,27.67
2023-01-18T17:20:44.087Z,28.13
2023-01-18T17:23:10.855Z,28.47
2023-01-18T17:25:37.903Z,27.63
2023-01-18T17:28:04.811Z,28.20
2023-01-18T17:30:32.708Z,28.57
2023-01-18T17:32:59.772Z,28.07
2023-01-18T17:35:28.506Z,28.87
2023-01-18T17:38:01.029Z,27.57
2023-01-18T17:40:41.920Z,27.20
2023-01-18T17:43:15.210Z,28.27
2023-01-18T17:45:48.416Z,28.50
2023-01-18T17:48:20.161Z,26.97
2023-01-18T17:50:46.944Z,29.50
2023-01-18T17:53:13.503Z,29.03
2023-01-18T17:55:40.533Z,28.93
2023-01-18T17:58:07.254Z,28.27
2023-01-18T18:00:33.803Z,29.43
2023-01-18T18:03:02.163Z,29.37
2023-01-18T18:05:28.957Z,28.57
2023-01-18T18:07:55.451Z,30.27
2023-01-18T18:10:21.981Z,30.60
2023-01-18T18:12:48.692Z,30.90
2023-01-18T18:15:15.360Z,30.80
2023-01-18T18:17:41.970Z,30.63
2023-01-18T18:20:10.858Z,29.83
2023-01-18T18:22:37.897Z,31.43
2023-01-18T18:25:06.589Z,31.00
2023-01-18T18:27:44.859Z,31.10
2023-01-18T18:30:13.007Z,31.23
2023-01-18T18:32:39.913Z,31.33
2023-01-18T18:35:23.273Z,31.37
2023-01-18T18:37:51.685Z,31.80
2023-01-18T18:40:19.290Z,31.07
2023-01-18T18:43:00.763Z,31.10
2023-01-18T18:45:30.202Z,33.67
2023-01-18T18:47:56.698Z,33.73
2023-01-18T18:50:23.208Z,33.77
2023-01-18T18:52:49.946Z,35.17
2023-01-18T18:55:16.574Z,35.27
2023-01-18T18:57:43.108Z,35.47
2023-01-18T19:00:10.421Z,36.00
2023-01-18T19:02:37.151Z,35.43
2023-01-18T19:05:04.215Z,37.23
2023-01-18T19:07:31.049Z,35.77
2023-01-18T19:09:57.563Z,38.90
2023-01-18T19:12:24.155Z,39.50
2023-01-18T19:14:50.791Z,37.83
2023-01-18T19:17:28.987Z,39.03
2023-01-18T19:19:56.567Z,41.43
2023-01-18T19:22:23.205Z,40.70
2023-01-18T19:24:49.846Z,41.30
2023-01-18T19:27:16.721Z,42.27
2023-01-18T19:29:43.290Z,43.33
2023-01-18T19:32:10.090Z,40.73
2023-01-18T19:34:38.687Z,43.07
2023-01-18T19:37:05.473Z,39.57
2023-01-18T19:39:34.799Z,41.00
2023-01-18T19:42:01.945Z,39.87
2023-01-18T19:44:28.512Z,40.80
2023-01-18T19:46:57.987Z,39.57
2023-01-18T19:49:26.224Z,38.90
2023-01-18T19:51:54.692Z,40.13
2023-01-18T19:54:22.094Z,38.23
2023-01-18T19:56:49.143Z,39.50
2023-01-18T19:59:15.824Z,39.60
2023-01-18T20:01:42.640Z,39.47
2023-01-18T20:04:09.856Z,39.87
2023-01-18T20:06:39.787Z,42.37
2023-01-18T20:09:17.861Z,36.63
2023-01-18T20:11:45.202Z,37.27
2023-01-18T20:14:11.941Z,37.87
2023-01-18T20:16:38.580Z,37.70
2023-01-18T20:19:05.509Z,35.53
2023-01-18T20:21:32.103Z,34.87
2023-01-18T20:23:59.132Z,35.93
2023-01-18T20:26:35.824Z,34.30
2023-01-18T20:29:07.145Z,33.20
2023-01-18T20:31:36.038Z,35.03
2023-01-18T20:34:08.955Z,34.73
2023-01-18T20:36:36.923Z,34.13
2023-01-18T20:39:04.603Z,34.40
2023-01-18T20:41:31.368Z,32.93
2023-01-18T20:43:58.254Z,34.33
2023-01-18T20:46:24.821Z,32.87
2023-01-18T20:48:51.388Z,32.77
2023-01-18T20:51:18.322Z,33.63
2023-01-18T20:53:45.906Z,33.00
2023-01-18T20:56:27.915Z,34.13
2023-01-18T20:58:55.656Z,32.67
2023-01-18T21:01:22.426Z,35.13
2023-01-18T21:03:54.349Z,33.23
2023-01-18T21:06:21.526Z,34.53
2023-01-18T21:08:48.139Z,35.20
2023-01-18T21:11:16.873Z,34.80
2023-01-18T21:13:43.765Z,32.57
2023-01-18T21:16:10.424Z,34.77
2023-01-18T21:18:37.662Z,34.93
2023-01-18T21:21:04.766Z,34.77
2023-01-18T21:23:38.011Z,34.90
2023-01-18T21:26:05.585Z,34.13
2023-01-18T21:28:32.069Z,34.77
2023-01-18T21:30:58.564Z,34.07
2023-01-18T21:33:25.635Z,34.47
2023-01-18T21:35:55.372Z,33.37
2023-01-18T21:38:25.667Z,33.97
2023-01-18T21:40:52.249Z,32.47
2023-01-18T21:43:38.837Z,33.27
2023-01-18T21:46:07.665Z,33.43
2023-01-18T21:48:34.135Z,33.67
2023-01-18T21:51:21.082Z,31.80
2023-01-18T21:54:06.456Z,30.80
2023-01-18T21:56:33.085Z,32.93
2023-01-18T21:59:01.023Z,30.40
2023-01-18T22:01:37.767Z,31.23
2023-01-18T22:04:28.657Z,32.70
2023-01-18T22:06:59.085Z,31.17
2023-01-18T22:09:30.005Z,32.17
2023-01-18T22:11:57.301Z,32.07
2023-01-18T22:14:24.341Z,32.03
2023-01-18T22:16:50.842Z,32.47
2023-01-18T22:19:19.761Z,31.40
2023-01-18T22:21:46.639Z,32.30
2023-01-18T22:24:13.810Z,33.43
2023-01-18T22:26:41.239Z,29.90
2023-01-18T22:29:08.302Z,30.27
2023-01-18T22:31:35.002Z,29.37
2023-01-18T22:34:04.390Z,29.57
2023-01-18T22:36:31.754Z,30.30
2023-01-18T22:38:58.212Z,31.90
2023-01-18T22:41:27.057Z,31.00
2023-01-18T22:43:54.562Z,30.03
2023-01-18T22:46:22.165Z,29.63
2023-01-18T22:48:48.749Z,30.67
2023-01-18T22:51:17.105Z,28.40
2023-01-18T22:53:44.503Z,29.70
2023-01-18T22:56:24.591Z,30.73
2023-01-18T22:58:51.980Z,31.53
2023-01-18T23:01:25.800Z,32.73
2023-01-18T23:03:55.014Z,30.23
2023-01-18T23:06:21.627Z,29.20
2023-01-18T23:08:48.636Z,30.77
2023-01-18T23:11:17.931Z,30.13
2023-01-18T23:14:19.675Z,30.03
2023-01-18T23:17:04.632Z,29.20
2023-01-18T23:19:31.250Z,31.80
2023-01-18T23:21:58.033Z,31.27
2023-01-18T23:24:25.303Z,30.97
2023-01-18T23:26:52.507Z,32.40
2023-01-18T23:29:19.940Z,32.30
2023-01-18T23:31:46.771Z,30.83
2023-01-18T23:34:21.996Z,30.17
2023-01-18T23:36:48.571Z,30.40
2023-01-18T23:39:33.389Z,30.73
2023-01-18T23:42:18.809Z,31.27
2023-01-18T23:45:04.610Z,30.60
2023-01-18T23:47:49.367Z,30.50
2023-01-18T23:50:34.847Z,29.80
2023-01-18T23:53:20.424Z,29.50
2023-01-18T23:55:47.012Z,31.13
2023-01-18T23:58:13.520Z,31.87
